createdAt,value
2022-12-15T00:00:27.915Z,15.92
2022-12-15T00:00:59.468Z,15.91
2022-12-15T00:01:30.941Z,15.92
2022-12-15T00:02:02.333Z,15.92
2022-12-15T00:02:33.816Z,15.90
2022-12-15T00:03:05.443Z,15.88
2022-12-15T00:03:37.412Z,15.90
2022-12-15T00:04:09.042Z,15.90
2022-12-15T00:04:40.457Z,15.87
2022-12-15T00:05:11.850Z,15.84
2022-12-15T00:05:43.239Z,15.83
2022-12-15T00:06:21.315Z,15.81
2022-12-15T00:06:53.081Z,15.84
2022-12-15T00:07:24.536Z,15.84
2022-12-15T00:07:55.930Z,15.84
2022-12-15T00:08:27.349Z,15.87
2022-12-15T00:08:58.748Z,15.84
2022-12-15T00:09:31.070Z,15.84
2022-12-15T00:10:02.562Z,15.84
2022-12-15T00:10:33.984Z,15.85
2022-12-15T00:11:05.393Z,15.82
2022-12-15T00:11:36.778Z,15.82
2022-12-15T00:12:08.188Z,15.83
2022-12-15T00:12:39.572Z,15.82
2022-12-15T00:13:10.964Z,15.81
2022-12-15T00:13:42.356Z,15.82
2022-12-15T00:14:13.771Z,15.82
2022-12-15T00:14:45.173Z,15.83
2022-12-15T00:15:16.558Z,15.83
2022-12-15T00:15:48.051Z,15.83
2022-12-15T00:16:19.570Z,15.81
2022-12-15T00:16:51.032Z,15.80
2022-12-15T00:17:22.542Z,15.80
2022-12-15T00:17:53.930Z,15.80
2022-12-15T00:18:25.319Z,15.77
2022-12-15T00:18:56.703Z,15.80
2022-12-15T00:19:28.136Z,15.80
2022-12-15T00:19:59.527Z,15.80
2022-12-15T00:20:30.923Z,15.80
2022-12-15T00:21:02.325Z,15.81
2022-12-15T00:21:33.724Z,15.81
2022-12-15T00:22:05.111Z,15.79
2022-12-15T00:22:36.621Z,15.78
2022-12-15T00:23:08.018Z,15.75
2022-12-15T00:23:39.422Z,15.74
2022-12-15T00:24:10.806Z,15.74
2022-12-15T00:24:42.212Z,15.73
2022-12-15T00:25:13.595Z,15.74
2022-12-15T00:25:44.980Z,15.73
2022-12-15T00:26:16.368Z,15.73
2022-12-15T00:26:47.760Z,15.74
2022-12-15T00:27:19.151Z,15.73
2022-12-15T00:27:50.667Z,15.72
2022-12-15T00:28:22.053Z,15.73
2022-12-15T00:28:53.539Z,15.73
2022-12-15T00:29:24.942Z,15.72
2022-12-15T00:29:56.399Z,15.71
2022-12-15T00:30:27.796Z,15.71
2022-12-15T00:31:02.555Z,15.72
2022-12-15T00:31:34.319Z,15.70
2022-12-15T00:32:05.755Z,15.70
2022-12-15T00:32:37.143Z,15.71
2022-12-15T00:33:08.611Z,15.67
2022-12-15T00:33:40.000Z,15.68
2022-12-15T00:34:11.395Z,15.70
2022-12-15T00:34:42.803Z,15.71
2022-12-15T00:35:14.191Z,15.69
2022-12-15T00:35:45.583Z,15.67
2022-12-15T00:36:16.970Z,15.66
2022-12-15T00:36:49.887Z,15.63
2022-12-15T00:37:21.484Z,15.67
2022-12-15T00:37:52.880Z,15.63
2022-12-15T00:38:24.324Z,15.61
2022-12-15T00:39:00.459Z,15.63
2022-12-15T00:39:34.843Z,15.61
2022-12-15T00:40:06.237Z,15.64
2022-12-15T00:40:37.645Z,15.65
2022-12-15T00:41:09.049Z,15.64
2022-12-15T00:41:40.446Z,15.64
2022-12-15T00:42:11.860Z,15.63
2022-12-15T00:42:43.248Z,15.64
2022-12-15T00:43:14.635Z,15.63
2022-12-15T00:43:46.187Z,15.63
2022-12-15T00:44:20.773Z,15.62
2022-12-15T00:44:52.415Z,15.64
2022-12-15T00:45:23.800Z,15.64
2022-12-15T00:45:55.190Z,15.64
2022-12-15T00:46:26.633Z,15.63
2022-12-15T00:46:58.129Z,15.61
2022-12-15T00:47:29.613Z,15.61
2022-12-15T00:48:01.011Z,15.61
2022-12-15T00:48:32.419Z,15.62
2022-12-15T00:49:03.918Z,15.61
2022-12-15T00:49:35.312Z,15.61
2022-12-15T00:50:06.714Z,15.61
2022-12-15T00:50:38.116Z,15.61
2022-12-15T00:51:09.534Z,15.62
2022-12-15T00:51:40.926Z,15.61
2022-12-15T00:52:12.320Z,15.62
2022-12-15T00:52:43.715Z,15.61
2022-12-15T00:53:15.117Z,15.61
2022-12-15T00:53:46.533Z,15.59
2022-12-15T00:54:18.346Z,15.58
2022-12-15T00:54:49.767Z,15.58
2022-12-15T00:55:21.164Z,15.58
2022-12-15T00:55:52.556Z,15.54
2022-12-15T00:56:23.944Z,15.55
2022-12-15T00:56:55.335Z,15.57
2022-12-15T00:57:26.719Z,15.55
2022-12-15T00:57:58.133Z,15.55
2022-12-15T00:58:29.525Z,15.55
2022-12-15T00:59:00.909Z,15.55
2022-12-15T00:59:32.441Z,15.55
2022-12-15T01:00:03.841Z,15.56
2022-12-15T01:00:35.230Z,15.54
2022-12-15T01:01:06.621Z,15.53
2022-12-15T01:01:38.119Z,15.53
2022-12-15T01:02:09.823Z,15.51
2022-12-15T01:02:41.415Z,15.50
2022-12-15T01:03:12.993Z,15.50
2022-12-15T01:03:44.542Z,15.49
2022-12-15T01:04:16.203Z,15.46
2022-12-15T01:04:47.716Z,15.49
2022-12-15T01:05:19.107Z,15.48
2022-12-15T01:05:50.511Z,15.46
2022-12-15T01:06:21.905Z,15.46
2022-12-15T01:06:53.299Z,15.45
2022-12-15T01:07:24.694Z,15.46
2022-12-15T01:07:56.113Z,15.45
2022-12-15T01:08:27.514Z,15.44
2022-12-15T01:08:58.916Z,15.44
2022-12-15T01:09:30.313Z,15.44
2022-12-15T01:10:01.783Z,15.45
2022-12-15T01:10:33.200Z,15.42
2022-12-15T01:11:04.594Z,15.42
2022-12-15T01:11:35.991Z,15.42
2022-12-15T01:12:07.376Z,15.41
2022-12-15T01:12:38.769Z,15.40
2022-12-15T01:13:10.168Z,15.41
2022-12-15T01:13:41.555Z,15.42
2022-12-15T01:14:12.959Z,15.41
2022-12-15T01:14:44.349Z,15.42
2022-12-15T01:15:15.831Z,15.38
2022-12-15T01:15:47.249Z,15.40
2022-12-15T01:16:18.740Z,15.40
2022-12-15T01:16:50.191Z,15.39
2022-12-15T01:17:21.599Z,15.40
2022-12-15T01:17:52.982Z,15.40
2022-12-15T01:18:24.375Z,15.40
2022-12-15T01:18:55.766Z,15.39
2022-12-15T01:19:27.160Z,15.38
2022-12-15T01:19:58.573Z,15.37
2022-12-15T01:20:29.988Z,15.37
2022-12-15T01:21:01.392Z,15.37
2022-12-15T01:21:32.823Z,15.37
2022-12-15T01:22:04.213Z,15.37
2022-12-15T01:22:35.618Z,15.35
2022-12-15T01:23:07.024Z,15.36
2022-12-15T01:23:38.411Z,15.37
2022-12-15T01:24:09.799Z,15.35
2022-12-15T01:24:41.216Z,15.37
2022-12-15T01:25:12.627Z,15.34
2022-12-15T01:25:44.155Z,15.34
2022-12-15T01:26:21.007Z,15.35
2022-12-15T01:26:52.404Z,15.35
2022-12-15T01:27:23.797Z,15.35
2022-12-15T01:27:55.205Z,15.35
2022-12-15T01:28:26.627Z,15.33
2022-12-15T01:28:58.021Z,15.35
2022-12-15T01:29:29.432Z,15.31
2022-12-15T01:30:00.820Z,15.33
2022-12-15T01:30:32.216Z,15.31
2022-12-15T01:31:03.800Z,15.30
2022-12-15T01:31:35.330Z,15.31
2022-12-15T01:32:06.759Z,15.30
2022-12-15T01:32:42.695Z,15.31
2022-12-15T01:33:17.145Z,15.31
2022-12-15T01:33:48.534Z,15.30
2022-12-15T01:34:19.972Z,15.30
2022-12-15T01:34:51.405Z,15.28
2022-12-15T01:35:22.798Z,15.26
2022-12-15T01:35:54.184Z,15.25
2022-12-15T01:36:25.681Z,15.27
2022-12-15T01:36:57.093Z,15.28
2022-12-15T01:37:28.484Z,15.28
2022-12-15T01:37:59.869Z,15.27
2022-12-15T01:38:31.320Z,15.27
2022-12-15T01:39:02.729Z,15.27
2022-12-15T01:39:34.119Z,15.27
2022-12-15T01:40:05.509Z,15.28
2022-12-15T01:40:36.899Z,15.28
2022-12-15T01:41:08.306Z,15.27
2022-12-15T01:41:39.857Z,15.27
2022-12-15T01:42:11.268Z,15.26
2022-12-15T01:42:42.735Z,15.26
2022-12-15T01:43:14.146Z,15.27
2022-12-15T01:43:45.537Z,15.26
2022-12-15T01:44:16.957Z,15.26
2022-12-15T01:44:48.351Z,15.27
2022-12-15T01:45:19.739Z,15.26
2022-12-15T01:45:51.147Z,15.26
2022-12-15T01:46:22.619Z,15.27
2022-12-15T01:46:54.169Z,15.25
2022-12-15T01:47:25.672Z,15.26
2022-12-15T01:47:57.069Z,15.25
2022-12-15T01:48:28.459Z,15.24
2022-12-15T01:48:59.843Z,15.25
2022-12-15T01:49:31.233Z,15.23
2022-12-15T01:50:02.631Z,15.23
2022-12-15T01:50:34.023Z,15.23
2022-12-15T01:51:05.430Z,15.22
2022-12-15T01:51:36.845Z,15.23
2022-12-15T01:52:08.300Z,15.21
2022-12-15T01:52:39.688Z,15.22
2022-12-15T01:53:11.083Z,15.21
2022-12-15T01:53:42.472Z,15.22
2022-12-15T01:54:13.854Z,15.20
2022-12-15T01:54:45.251Z,15.20
2022-12-15T01:55:19.952Z,15.20
2022-12-15T01:55:51.355Z,15.18
2022-12-15T01:56:22.764Z,15.18
2022-12-15T01:56:54.169Z,15.18
2022-12-15T01:57:25.558Z,15.17
2022-12-15T01:57:56.969Z,15.16
2022-12-15T01:58:28.352Z,15.12
2022-12-15T01:58:59.750Z,15.13
2022-12-15T01:59:31.150Z,15.14
2022-12-15T02:00:02.547Z,15.15
2022-12-15T02:00:34.014Z,15.12
2022-12-15T02:01:05.531Z,15.11
2022-12-15T02:01:37.055Z,15.07
2022-12-15T02:02:08.730Z,15.08
2022-12-15T02:02:40.755Z,15.08
2022-12-15T02:03:12.370Z,15.09
2022-12-15T02:03:43.862Z,15.11
2022-12-15T02:04:15.276Z,15.09
2022-12-15T02:04:46.669Z,15.08
2022-12-15T02:05:18.057Z,15.08
2022-12-15T02:05:49.471Z,15.08
2022-12-15T02:06:20.861Z,15.06
2022-12-15T02:06:52.267Z,15.06
2022-12-15T02:07:23.670Z,15.05
2022-12-15T02:07:55.054Z,15.03
2022-12-15T02:08:26.447Z,15.05
2022-12-15T02:08:57.836Z,15.05
2022-12-15T02:09:29.219Z,15.03
2022-12-15T02:10:00.611Z,15.05
2022-12-15T02:10:32.006Z,15.04
2022-12-15T02:11:03.403Z,15.01
2022-12-15T02:11:34.799Z,15.02
2022-12-15T02:12:06.261Z,15.02
2022-12-15T02:12:37.665Z,15.02
2022-12-15T02:13:09.058Z,15.01
2022-12-15T02:13:40.443Z,15.01
2022-12-15T02:14:11.833Z,15.00
2022-12-15T02:14:43.232Z,15.01
2022-12-15T02:15:14.635Z,15.00
2022-12-15T02:15:46.044Z,15.00
2022-12-15T02:16:17.489Z,14.99
2022-12-15T02:16:48.954Z,14.99
2022-12-15T02:17:20.466Z,14.97
2022-12-15T02:17:51.864Z,14.98
2022-12-15T02:18:23.274Z,14.97
2022-12-15T02:18:54.667Z,14.98
2022-12-15T02:19:26.054Z,14.96
2022-12-15T02:19:57.447Z,14.94
2022-12-15T02:20:28.830Z,14.98
2022-12-15T02:21:00.260Z,14.98
2022-12-15T02:21:31.710Z,14.97
2022-12-15T02:22:03.090Z,14.97
2022-12-15T02:22:34.575Z,14.96
2022-12-15T02:23:05.998Z,14.95
2022-12-15T02:23:37.410Z,14.94
2022-12-15T02:24:08.815Z,14.95
2022-12-15T02:24:40.284Z,14.95
2022-12-15T02:25:11.662Z,14.95
2022-12-15T02:25:43.047Z,14.95
2022-12-15T02:26:14.438Z,14.95
2022-12-15T02:26:45.823Z,14.95
2022-12-15T02:27:17.205Z,14.94
2022-12-15T02:27:48.663Z,14.94
2022-12-15T02:28:20.052Z,14.93
2022-12-15T02:28:51.445Z,14.93
2022-12-15T02:29:22.840Z,14.92
2022-12-15T02:29:54.233Z,14.91
2022-12-15T02:30:25.635Z,14.90
2022-12-15T02:30:57.025Z,14.91
2022-12-15T02:31:28.457Z,14.91
2022-12-15T02:31:59.950Z,14.88
2022-12-15T02:32:31.419Z,14.89
2022-12-15T02:33:02.934Z,14.89
2022-12-15T02:33:34.629Z,14.89
2022-12-15T02:34:06.231Z,14.90
2022-12-15T02:34:37.638Z,14.88
2022-12-15T02:35:09.052Z,14.87
2022-12-15T02:35:40.457Z,14.88
2022-12-15T02:36:11.845Z,14.89
2022-12-15T02:36:43.231Z,14.88
2022-12-15T02:37:14.642Z,14.88
2022-12-15T02:37:46.027Z,14.87
2022-12-15T02:38:21.666Z,14.86
2022-12-15T02:38:53.059Z,14.84
2022-12-15T02:39:24.447Z,14.84
2022-12-15T02:39:55.880Z,14.85
2022-12-15T02:40:27.262Z,14.85
2022-12-15T02:40:58.660Z,14.85
2022-12-15T02:41:30.062Z,14.85
2022-12-15T02:42:01.466Z,14.82
2022-12-15T02:42:32.902Z,14.83
2022-12-15T02:43:04.295Z,14.83
2022-12-15T02:43:35.830Z,14.83
2022-12-15T02:44:07.220Z,14.82
2022-12-15T02:44:38.636Z,14.83
2022-12-15T02:45:10.101Z,14.81
2022-12-15T02:45:41.637Z,14.82
2022-12-15T02:46:13.099Z,14.81
2022-12-15T02:46:44.553Z,14.81
2022-12-15T02:47:15.940Z,14.82
2022-12-15T02:47:47.334Z,14.81
2022-12-15T02:48:18.723Z,14.82
2022-12-15T02:48:50.216Z,14.80
2022-12-15T02:49:21.630Z,14.80
2022-12-15T02:49:53.045Z,14.78
2022-12-15T02:50:24.445Z,14.78
2022-12-15T02:50:55.835Z,14.78
2022-12-15T02:51:27.283Z,14.78
2022-12-15T02:51:58.671Z,14.79
2022-12-15T02:52:30.059Z,14.80
2022-12-15T02:53:01.444Z,14.80
2022-12-15T02:53:33.174Z,14.77
2022-12-15T02:54:04.965Z,14.77
2022-12-15T02:54:36.387Z,14.75
2022-12-15T02:55:07.792Z,14.76
2022-12-15T02:55:39.178Z,14.76
2022-12-15T02:56:10.661Z,14.76
2022-12-15T02:56:42.059Z,14.74
2022-12-15T02:57:13.452Z,14.74
2022-12-15T02:57:44.863Z,14.73
2022-12-15T02:58:16.246Z,14.73
2022-12-15T02:58:47.707Z,14.74
2022-12-15T02:59:19.264Z,14.73
2022-12-15T02:59:50.687Z,14.74
2022-12-15T03:00:22.076Z,14.73
2022-12-15T03:00:53.487Z,14.73
2022-12-15T03:01:24.993Z,14.72
2022-12-15T03:01:56.691Z,14.71
2022-12-15T03:02:28.313Z,14.70
2022-12-15T03:02:59.939Z,14.69
2022-12-15T03:03:31.976Z,14.69
2022-12-15T03:04:03.988Z,14.70
2022-12-15T03:04:35.431Z,14.67
2022-12-15T03:05:06.817Z,14.68
2022-12-15T03:05:38.199Z,14.67
2022-12-15T03:06:09.596Z,14.68
2022-12-15T03:06:40.979Z,14.68
2022-12-15T03:07:12.387Z,14.67
2022-12-15T03:07:43.781Z,14.66
2022-12-15T03:08:15.163Z,14.66
2022-12-15T03:08:46.571Z,14.66
2022-12-15T03:09:17.951Z,14.66
2022-12-15T03:09:49.405Z,14.64
2022-12-15T03:10:20.844Z,14.64
2022-12-15T03:10:52.234Z,14.63
2022-12-15T03:11:23.634Z,14.64
2022-12-15T03:11:55.039Z,14.62
2022-12-15T03:12:26.432Z,14.61
2022-12-15T03:12:57.851Z,14.59
2022-12-15T03:13:29.634Z,14.59
2022-12-15T03:14:01.251Z,14.60
2022-12-15T03:14:32.634Z,14.60
2022-12-15T03:15:04.043Z,14.59
2022-12-15T03:15:35.940Z,14.59
2022-12-15T03:16:07.469Z,14.57
2022-12-15T03:16:38.957Z,14.58
2022-12-15T03:17:10.382Z,14.57
2022-12-15T03:17:41.770Z,14.57
2022-12-15T03:18:13.174Z,14.57
2022-12-15T03:18:44.567Z,14.56
2022-12-15T03:19:15.957Z,14.56
2022-12-15T03:19:47.345Z,14.55
2022-12-15T03:20:21.210Z,14.54
2022-12-15T03:20:52.624Z,14.54
2022-12-15T03:21:24.011Z,14.54
2022-12-15T03:21:55.402Z,14.51
2022-12-15T03:22:26.799Z,14.52
2022-12-15T03:22:58.209Z,14.53
2022-12-15T03:23:29.993Z,14.52
2022-12-15T03:24:01.559Z,14.53
2022-12-15T03:24:32.941Z,14.53
2022-12-15T03:25:04.327Z,14.52
2022-12-15T03:25:35.799Z,14.52
2022-12-15T03:26:07.205Z,14.52
2022-12-15T03:26:38.595Z,14.51
2022-12-15T03:27:10.005Z,14.50
2022-12-15T03:27:41.405Z,14.48
2022-12-15T03:28:12.806Z,14.49
2022-12-15T03:28:44.202Z,14.49
2022-12-15T03:29:15.596Z,14.49
2022-12-15T03:29:46.984Z,14.50
2022-12-15T03:30:18.385Z,14.48
2022-12-15T03:30:50.541Z,14.46
2022-12-15T03:31:22.273Z,14.48
2022-12-15T03:31:53.760Z,14.48
2022-12-15T03:32:25.185Z,14.47
2022-12-15T03:32:56.591Z,14.47
2022-12-15T03:33:28.409Z,14.48
2022-12-15T03:34:00.059Z,14.48
2022-12-15T03:34:31.458Z,14.47
2022-12-15T03:35:02.864Z,14.45
2022-12-15T03:35:34.250Z,14.46
2022-12-15T03:36:05.676Z,14.46
2022-12-15T03:36:37.067Z,14.45
2022-12-15T03:37:08.479Z,14.45
2022-12-15T03:37:39.877Z,14.44
2022-12-15T03:38:11.273Z,14.44
2022-12-15T03:38:42.660Z,14.43
2022-12-15T03:39:14.077Z,14.44
2022-12-15T03:39:45.482Z,14.43
2022-12-15T03:40:16.894Z,14.42
2022-12-15T03:40:48.317Z,14.42
2022-12-15T03:41:19.801Z,14.43
2022-12-15T03:41:51.181Z,14.42
2022-12-15T03:42:22.580Z,14.40
2022-12-15T03:42:53.969Z,14.41
2022-12-15T03:43:25.363Z,14.42
2022-12-15T03:43:56.760Z,14.41
2022-12-15T03:44:28.152Z,14.42
2022-12-15T03:44:59.549Z,14.42
2022-12-15T03:45:31.006Z,14.40
2022-12-15T03:46:02.542Z,14.39
2022-12-15T03:46:34.190Z,14.40
2022-12-15T03:47:05.578Z,14.40
2022-12-15T03:47:36.962Z,14.40
2022-12-15T03:48:08.381Z,14.41
2022-12-15T03:48:39.772Z,14.40
2022-12-15T03:49:11.168Z,14.39
2022-12-15T03:49:42.550Z,14.38
2022-12-15T03:50:13.984Z,14.40
2022-12-15T03:50:45.396Z,14.38
2022-12-15T03:51:16.781Z,14.39
2022-12-15T03:51:48.223Z,14.39
2022-12-15T03:52:19.610Z,14.37
2022-12-15T03:52:51.000Z,14.36
2022-12-15T03:53:22.393Z,14.34
2022-12-15T03:53:53.804Z,14.35
2022-12-15T03:54:25.223Z,14.35
2022-12-15T03:54:56.636Z,14.34
2022-12-15T03:55:28.026Z,14.33
2022-12-15T03:55:59.444Z,14.32
2022-12-15T03:56:30.846Z,14.33
2022-12-15T03:57:02.296Z,14.32
2022-12-15T03:57:33.683Z,14.32
2022-12-15T03:58:05.073Z,14.33
2022-12-15T03:58:36.487Z,14.30
2022-12-15T03:59:07.882Z,14.32
2022-12-15T03:59:39.339Z,14.31
2022-12-15T04:00:10.875Z,14.30
2022-12-15T04:00:42.267Z,14.30
2022-12-15T04:01:13.701Z,14.29
2022-12-15T04:01:45.174Z,14.29
2022-12-15T04:02:16.889Z,14.29
2022-12-15T04:02:50.094Z,14.30
2022-12-15T04:03:22.100Z,14.31
2022-12-15T04:04:00.039Z,14.29
2022-12-15T04:04:32.118Z,14.28
2022-12-15T04:05:03.529Z,14.27
2022-12-15T04:05:34.940Z,14.26
2022-12-15T04:06:06.330Z,14.28
2022-12-15T04:06:37.721Z,14.27
2022-12-15T04:07:09.114Z,14.27
2022-12-15T04:07:40.639Z,14.26
2022-12-15T04:08:12.031Z,14.26
2022-12-15T04:08:43.428Z,14.24
2022-12-15T04:09:14.826Z,14.24
2022-12-15T04:09:46.215Z,14.24
2022-12-15T04:10:17.603Z,14.24
2022-12-15T04:10:48.999Z,14.23
2022-12-15T04:11:20.399Z,14.22
2022-12-15T04:11:51.788Z,14.21
2022-12-15T04:12:23.197Z,14.21
2022-12-15T04:12:54.708Z,14.19
2022-12-15T04:13:26.096Z,14.21
2022-12-15T04:13:57.487Z,14.19
2022-12-15T04:14:28.890Z,14.21
2022-12-15T04:15:00.278Z,14.17
2022-12-15T04:15:31.672Z,14.19
2022-12-15T04:16:03.077Z,14.18
2022-12-15T04:16:34.577Z,14.17
2022-12-15T04:17:06.150Z,14.17
2022-12-15T04:17:37.579Z,14.18
2022-12-15T04:18:09.168Z,14.20
2022-12-15T04:18:40.571Z,14.17
2022-12-15T04:19:11.960Z,14.17
2022-12-15T04:19:43.344Z,14.17
2022-12-15T04:20:14.757Z,14.14
2022-12-15T04:20:46.167Z,14.18
2022-12-15T04:21:21.820Z,14.16
2022-12-15T04:21:53.212Z,14.16
2022-12-15T04:22:24.609Z,14.15
2022-12-15T04:22:56.019Z,14.14
2022-12-15T04:23:27.709Z,14.12
2022-12-15T04:23:59.314Z,14.13
2022-12-15T04:24:30.722Z,14.11
2022-12-15T04:25:02.105Z,14.13
2022-12-15T04:25:33.517Z,14.12
2022-12-15T04:26:04.926Z,14.11
2022-12-15T04:26:36.315Z,14.11
2022-12-15T04:27:07.722Z,14.12
2022-12-15T04:27:39.117Z,14.12
2022-12-15T04:28:10.527Z,14.10
2022-12-15T04:28:41.973Z,14.08
2022-12-15T04:29:13.363Z,14.10
2022-12-15T04:29:44.751Z,14.08
2022-12-15T04:30:16.140Z,14.08
2022-12-15T04:30:47.586Z,14.09
2022-12-15T04:31:19.078Z,14.07
2022-12-15T04:31:50.550Z,14.05
2022-12-15T04:32:21.939Z,14.08
2022-12-15T04:32:53.332Z,14.06
2022-12-15T04:33:30.470Z,14.06
2022-12-15T04:34:02.227Z,14.03
2022-12-15T04:34:33.630Z,14.06
2022-12-15T04:35:05.029Z,14.05
2022-12-15T04:35:36.440Z,14.03
2022-12-15T04:36:07.819Z,14.03
2022-12-15T04:36:39.216Z,14.03
2022-12-15T04:37:10.626Z,14.02
2022-12-15T04:37:42.016Z,14.04
2022-12-15T04:38:13.405Z,14.04
2022-12-15T04:38:50.395Z,14.02
2022-12-15T04:39:22.215Z,14.01
2022-12-15T04:39:53.606Z,14.01
2022-12-15T04:40:25.010Z,14.02
2022-12-15T04:40:56.418Z,14.01
2022-12-15T04:41:27.856Z,14.01
2022-12-15T04:41:59.244Z,13.98
2022-12-15T04:42:30.657Z,14.00
2022-12-15T04:43:02.045Z,14.01
2022-12-15T04:43:33.730Z,14.00
2022-12-15T04:44:05.363Z,13.99
2022-12-15T04:44:36.879Z,13.98
2022-12-15T04:45:08.282Z,13.99
2022-12-15T04:45:39.675Z,14.00
2022-12-15T04:46:11.109Z,14.00
2022-12-15T04:46:42.581Z,13.99
2022-12-15T04:47:14.006Z,13.99
2022-12-15T04:47:45.418Z,13.99
2022-12-15T04:48:16.876Z,13.98
2022-12-15T04:48:48.272Z,13.95
2022-12-15T04:49:19.659Z,13.99
2022-12-15T04:49:51.156Z,13.98
2022-12-15T04:50:22.543Z,13.96
2022-12-15T04:50:53.939Z,13.97
2022-12-15T04:51:25.329Z,13.96
2022-12-15T04:51:56.753Z,13.98
2022-12-15T04:52:28.143Z,13.96
2022-12-15T04:52:59.531Z,13.95
2022-12-15T04:53:31.238Z,13.95
2022-12-15T04:54:02.900Z,13.96
2022-12-15T04:54:34.290Z,13.94
2022-12-15T04:55:05.910Z,13.94
2022-12-15T04:55:37.333Z,13.94
2022-12-15T04:56:10.606Z,13.94
2022-12-15T04:56:45.070Z,13.93
2022-12-15T04:57:16.461Z,13.94
2022-12-15T04:57:47.869Z,13.92
2022-12-15T04:58:19.254Z,13.93
2022-12-15T04:58:50.651Z,13.92
2022-12-15T04:59:22.043Z,13.91
2022-12-15T04:59:53.431Z,13.91
2022-12-15T05:00:24.911Z,13.91
2022-12-15T05:00:56.314Z,13.91
2022-12-15T05:01:27.786Z,13.90
2022-12-15T05:01:59.411Z,13.88
2022-12-15T05:02:31.011Z,13.88
2022-12-15T05:03:02.527Z,13.90
2022-12-15T05:03:34.243Z,13.88
2022-12-15T05:04:06.159Z,13.89
2022-12-15T05:04:37.631Z,13.90
2022-12-15T05:05:09.069Z,13.89
2022-12-15T05:05:40.596Z,13.87
2022-12-15T05:06:11.986Z,13.87
2022-12-15T05:06:43.383Z,13.87
2022-12-15T05:07:14.762Z,13.88
2022-12-15T05:07:46.143Z,13.87
2022-12-15T05:08:17.535Z,13.87
2022-12-15T05:08:50.210Z,13.88
2022-12-15T05:09:21.808Z,13.86
2022-12-15T05:09:53.219Z,13.85
2022-12-15T05:10:24.609Z,13.85
2022-12-15T05:10:56.084Z,13.85
2022-12-15T05:11:27.467Z,13.85
2022-12-15T05:11:58.859Z,13.84
2022-12-15T05:12:30.247Z,13.84
2022-12-15T05:13:01.641Z,13.84
2022-12-15T05:13:33.339Z,13.83
2022-12-15T05:14:05.036Z,13.84
2022-12-15T05:14:36.433Z,13.84
2022-12-15T05:15:07.842Z,13.81
2022-12-15T05:15:39.316Z,13.81
2022-12-15T05:16:10.814Z,13.81
2022-12-15T05:16:42.299Z,13.82
2022-12-15T05:17:13.790Z,13.81
2022-12-15T05:17:45.278Z,13.80
2022-12-15T05:18:16.700Z,13.79
2022-12-15T05:18:48.087Z,13.78
2022-12-15T05:19:19.485Z,13.80
2022-12-15T05:19:50.882Z,13.79
2022-12-15T05:20:22.277Z,13.80
2022-12-15T05:20:53.667Z,13.76
2022-12-15T05:21:25.126Z,13.77
2022-12-15T05:21:56.510Z,13.79
2022-12-15T05:22:27.909Z,13.77
2022-12-15T05:22:59.300Z,13.77
2022-12-15T05:23:30.888Z,13.77
2022-12-15T05:24:02.575Z,13.76
2022-12-15T05:24:33.973Z,13.76
2022-12-15T05:25:05.359Z,13.74
2022-12-15T05:25:36.750Z,13.74
2022-12-15T05:26:08.144Z,13.74
2022-12-15T05:26:39.607Z,13.75
2022-12-15T05:27:10.998Z,13.75
2022-12-15T05:27:42.395Z,13.73
2022-12-15T05:28:13.781Z,13.73
2022-12-15T05:28:45.166Z,13.73
2022-12-15T05:29:16.571Z,13.71
2022-12-15T05:29:47.958Z,13.73
2022-12-15T05:30:19.351Z,13.73
2022-12-15T05:30:50.751Z,13.72
2022-12-15T05:31:22.229Z,13.71
2022-12-15T05:31:53.759Z,13.71
2022-12-15T05:32:25.163Z,13.69
2022-12-15T05:32:56.570Z,13.71
2022-12-15T05:33:28.241Z,13.69
2022-12-15T05:34:05.128Z,13.71
2022-12-15T05:34:37.240Z,13.69
2022-12-15T05:35:08.646Z,13.68
2022-12-15T05:35:40.041Z,13.68
2022-12-15T05:36:11.431Z,13.67
2022-12-15T05:36:42.819Z,13.68
2022-12-15T05:37:14.286Z,13.68
2022-12-15T05:37:45.679Z,13.67
2022-12-15T05:38:17.086Z,13.67
2022-12-15T05:38:48.483Z,13.65
2022-12-15T05:39:21.807Z,13.66
2022-12-15T05:39:53.205Z,13.66
2022-12-15T05:40:24.595Z,13.67
2022-12-15T05:40:56.004Z,13.65
2022-12-15T05:41:27.405Z,13.65
2022-12-15T05:41:58.796Z,13.64
2022-12-15T05:42:30.400Z,13.65
2022-12-15T05:43:01.808Z,13.64
2022-12-15T05:43:33.536Z,13.65
2022-12-15T05:44:05.307Z,13.63
2022-12-15T05:44:36.716Z,13.62
2022-12-15T05:45:08.110Z,13.61
2022-12-15T05:45:39.527Z,13.62
2022-12-15T05:46:10.950Z,13.63
2022-12-15T05:46:42.517Z,13.61
2022-12-15T05:47:13.957Z,13.61
2022-12-15T05:47:45.456Z,13.59
2022-12-15T05:48:16.842Z,13.61
2022-12-15T05:48:48.237Z,13.59
2022-12-15T05:49:19.637Z,13.57
2022-12-15T05:49:51.042Z,13.59
2022-12-15T05:50:22.435Z,13.59
2022-12-15T05:50:53.815Z,13.58
2022-12-15T05:51:25.205Z,13.57
2022-12-15T05:51:56.615Z,13.58
2022-12-15T05:52:28.020Z,13.57
2022-12-15T05:52:59.449Z,13.58
2022-12-15T05:53:31.291Z,13.56
2022-12-15T05:54:03.021Z,13.56
2022-12-15T05:54:34.432Z,13.55
2022-12-15T05:55:05.828Z,13.56
2022-12-15T05:55:37.227Z,13.54
2022-12-15T05:56:08.616Z,13.55
2022-12-15T05:56:40.007Z,13.56
2022-12-15T05:57:11.407Z,13.54
2022-12-15T05:57:42.794Z,13.54
2022-12-15T05:58:14.307Z,13.53
2022-12-15T05:58:45.892Z,13.54
2022-12-15T05:59:17.320Z,13.52
2022-12-15T05:59:48.714Z,13.52
2022-12-15T06:00:20.104Z,13.51
2022-12-15T06:00:51.511Z,13.52
2022-12-15T06:01:22.933Z,13.52
2022-12-15T06:01:54.587Z,13.50
2022-12-15T06:02:26.101Z,13.49
2022-12-15T06:02:57.629Z,13.49
2022-12-15T06:03:29.403Z,13.49
2022-12-15T06:04:01.120Z,13.50
2022-12-15T06:04:32.620Z,13.51
2022-12-15T06:05:04.136Z,13.49
2022-12-15T06:05:35.583Z,13.51
2022-12-15T06:06:06.987Z,13.50
2022-12-15T06:06:38.396Z,13.49
2022-12-15T06:07:09.786Z,13.48
2022-12-15T06:07:41.200Z,13.48
2022-12-15T06:08:12.603Z,13.49
2022-12-15T06:08:44.025Z,13.48
2022-12-15T06:09:15.431Z,13.47
2022-12-15T06:09:46.825Z,13.46
2022-12-15T06:10:18.230Z,13.43
2022-12-15T06:10:49.616Z,13.44
2022-12-15T06:11:21.028Z,13.46
2022-12-15T06:11:52.417Z,13.43
2022-12-15T06:12:23.867Z,13.44
2022-12-15T06:12:55.290Z,13.44
2022-12-15T06:13:26.683Z,13.43
2022-12-15T06:13:58.227Z,13.43
2022-12-15T06:14:29.612Z,13.42
2022-12-15T06:15:01.024Z,13.43
2022-12-15T06:15:32.413Z,13.41
2022-12-15T06:16:03.888Z,13.42
2022-12-15T06:16:38.379Z,13.40
2022-12-15T06:17:14.139Z,13.41
2022-12-15T06:17:45.546Z,13.41
2022-12-15T06:18:21.178Z,13.41
2022-12-15T06:18:52.584Z,13.38
2022-12-15T06:19:25.427Z,13.41
2022-12-15T06:19:56.815Z,13.40
2022-12-15T06:20:28.199Z,13.40
2022-12-15T06:20:59.591Z,13.40
2022-12-15T06:21:30.999Z,13.38
2022-12-15T06:22:02.409Z,13.39
2022-12-15T06:22:33.815Z,13.38
2022-12-15T06:23:05.228Z,13.37
2022-12-15T06:23:36.620Z,13.38
2022-12-15T06:24:08.004Z,13.37
2022-12-15T06:24:39.535Z,13.35
2022-12-15T06:25:10.927Z,13.37
2022-12-15T06:25:42.355Z,13.36
2022-12-15T06:26:13.773Z,13.36
2022-12-15T06:26:45.154Z,13.35
2022-12-15T06:27:16.552Z,13.34
2022-12-15T06:27:47.948Z,13.34
2022-12-15T06:28:19.342Z,13.34
2022-12-15T06:28:50.736Z,13.34
2022-12-15T06:29:22.124Z,13.31
2022-12-15T06:29:53.615Z,13.33
2022-12-15T06:30:25.005Z,13.33
2022-12-15T06:30:56.418Z,13.31
2022-12-15T06:31:27.857Z,13.29
2022-12-15T06:31:59.302Z,13.29
2022-12-15T06:32:30.695Z,13.32
2022-12-15T06:33:02.088Z,13.32
2022-12-15T06:33:33.884Z,13.31
2022-12-15T06:34:05.650Z,13.29
2022-12-15T06:34:37.062Z,13.28
2022-12-15T06:35:08.490Z,13.27
2022-12-15T06:35:39.904Z,13.28
2022-12-15T06:36:11.292Z,13.28
2022-12-15T06:36:42.686Z,13.30
2022-12-15T06:37:14.075Z,13.28
2022-12-15T06:37:45.484Z,13.28
2022-12-15T06:38:16.869Z,13.28
2022-12-15T06:38:50.027Z,13.28
2022-12-15T06:39:21.612Z,13.27
2022-12-15T06:39:53.004Z,13.27
2022-12-15T06:40:24.480Z,13.26
2022-12-15T06:40:55.923Z,13.25
2022-12-15T06:41:27.328Z,13.27
2022-12-15T06:41:58.711Z,13.26
2022-12-15T06:42:30.090Z,13.26
2022-12-15T06:43:01.495Z,13.25
2022-12-15T06:43:33.262Z,13.26
2022-12-15T06:44:05.023Z,13.23
2022-12-15T06:44:36.431Z,13.23
2022-12-15T06:45:07.814Z,13.22
2022-12-15T06:45:39.359Z,13.21
2022-12-15T06:46:10.880Z,13.21
2022-12-15T06:46:42.369Z,13.22